Charlotte Douglas International Airport
KCLT : now visible

Airfield :











YOU CAN JOIN US ON...

 
LOGIN :

Register | Disclaimer

   EN    FR    IT 

 









Legend :    VFR   Marginal VFR   IFR   Intensive IFR   Very Intensive IFR
Visi :
Ceiling :
>= 8 km
>= 3000ft
5 to 8 km
1000 to 3000 ft
1500m to 5 km
500 to 1000 ft
800 to 1500m
200 to 500 ft
< 800m
< 200 ft
Symbols :   Thunderstorms  Fog  Heavy snow  Heavy precipitations  Wind > 20 kt






- Airport Elevation : 748 ft
- IATA code : CLT


KCLT - Charlotte Douglas International

CURRENT METAR :
  • 210352Z 15003KT 10SM SCT180 BKN250 05/M06 A3009 RMK AO2 SLP190 T00501056

EXPIRED METARs :
  • 210252Z 00000KT 10SM SCT250 06/M06 A3010 RMK AO2 SLP194 T00611061 58007
  • 210152Z 00000KT 10SM BKN250 08/M07 A3011 RMK AO2 SLP197 T00781072

TAF KCLT
Valid from the 21 at 02:00 until the 22 at 06:00 UTC


210156Z 2102/2206 00000KT P6SM BKN250
FM211100 21004KT P6SM OVC060
FM211500 22007KT P6SM BKN060
FM211900 23010G18KT P6SM BKN050
FM220000 23005KT P6SM BKN080
KZTL FIR / North America



MET'MAP, your aeronautical weather chart ! - Copyright ORBIFLY December 2007 - Disclaimer

ORBIFLY MET'MAP TEAM :

Programming & Development : Alexandra Zaïnal
Concept & original design : Baudouin d'Aumeries
Assistance for programming : Marc-Olivier Méhu
Technical & hardware support : Manuel Goepfert

Contact : metmap@orbifly.com




SOURCES & CREDITS :

   NOAA       Earth
Advisory